createdAt,value
2023-04-03T00:04:55.289Z,4.59
2023-04-03T00:10:19.146Z,4.60
2023-04-03T00:15:11.498Z,4.71
2023-04-03T00:20:11.448Z,4.74
2023-04-03T00:25:11.387Z,4.84
2023-04-03T00:30:11.305Z,4.77
2023-04-03T00:35:11.250Z,4.82
2023-04-03T00:40:11.224Z,4.87
2023-04-03T00:45:11.139Z,4.84
2023-04-03T00:50:11.023Z,4.80
2023-04-03T00:55:11.040Z,4.86
2023-04-03T01:00:10.961Z,4.82
2023-04-03T01:05:10.877Z,4.80
2023-04-03T01:10:10.809Z,4.74
2023-04-03T01:15:10.734Z,4.71
2023-04-03T01:20:10.634Z,4.73
2023-04-03T01:25:10.598Z,4.73
2023-04-03T01:30:10.527Z,4.67
2023-04-03T01:35:10.446Z,4.71
2023-04-03T01:40:10.391Z,4.78
2023-04-03T01:45:10.357Z,4.78
2023-04-03T01:50:10.247Z,4.78
2023-04-03T01:55:10.204Z,4.77
2023-04-03T02:00:10.148Z,4.74
2023-04-03T02:05:10.087Z,4.73
2023-04-03T02:10:09.978Z,4.75
2023-04-03T02:15:09.960Z,4.73
2023-04-03T02:20:09.868Z,4.68
2023-04-03T02:25:09.825Z,4.71
2023-04-03T02:30:09.708Z,4.71
2023-04-03T02:35:09.840Z,4.70
2023-04-03T02:40:09.648Z,4.73
2023-04-03T02:45:09.895Z,4.71
2023-04-03T02:50:09.472Z,4.66
2023-04-03T02:55:09.406Z,4.58
2023-04-03T03:00:09.331Z,4.45
2023-04-03T03:05:09.334Z,4.34
2023-04-03T03:10:09.185Z,4.13
2023-04-03T03:15:09.160Z,3.96
2023-04-03T03:20:09.104Z,3.84
2023-04-03T03:25:09.052Z,3.70
2023-04-03T03:30:08.985Z,3.62
2023-04-03T03:35:08.881Z,3.58
2023-04-03T03:40:08.782Z,3.63
2023-04-03T03:45:08.748Z,3.59
2023-04-03T03:50:08.717Z,3.60
2023-04-03T03:55:08.616Z,3.63
2023-04-03T04:00:08.566Z,3.66
2023-04-03T04:05:08.513Z,3.62
2023-04-03T04:10:08.414Z,3.55
2023-04-03T04:15:40.825Z,3.48
2023-04-03T04:20:33.085Z,3.50
2023-04-03T04:25:32.982Z,3.42
2023-04-03T04:30:32.940Z,3.34
2023-04-03T04:35:33.011Z,3.31
2023-04-03T04:40:32.824Z,3.28
2023-04-03T04:45:32.734Z,3.21
2023-04-03T04:50:32.695Z,3.13
2023-04-03T04:55:32.633Z,3.08
2023-04-03T05:00:32.564Z,3.05
2023-04-03T05:05:32.491Z,3.01
2023-04-03T05:10:32.415Z,3.01
2023-04-03T05:15:32.368Z,2.98
2023-04-03T05:20:32.296Z,2.97
2023-04-03T05:25:32.216Z,2.97
2023-04-03T05:30:32.156Z,2.98
2023-04-03T05:35:32.077Z,2.97
2023-04-03T05:40:32.032Z,2.98
2023-04-03T05:45:31.998Z,3.01
2023-04-03T05:50:31.966Z,3.05
2023-04-03T05:55:31.831Z,3.08
2023-04-03T06:00:31.783Z,3.16
2023-04-03T06:05:31.713Z,3.22
2023-04-03T06:10:31.653Z,3.28
2023-04-03T06:15:31.602Z,3.36
2023-04-03T06:20:31.549Z,3.41
2023-04-03T06:25:31.521Z,3.51
2023-04-03T06:30:31.421Z,3.63
2023-04-03T06:35:31.332Z,3.77
2023-04-03T06:40:31.236Z,3.86
2023-04-03T06:45:31.189Z,4.05
2023-04-03T06:50:31.139Z,4.96
2023-04-03T06:55:31.065Z,6.42
2023-04-03T07:00:30.980Z,8.10
2023-04-03T07:05:30.944Z,8.55
2023-04-03T07:10:30.857Z,8.94
2023-04-03T07:15:32.756Z,9.68
2023-04-03T07:20:30.713Z,10.30
2023-04-03T07:25:30.711Z,10.23
2023-04-03T07:30:30.584Z,10.93
2023-04-03T07:35:30.541Z,12.04
2023-04-03T07:40:30.481Z,12.06
2023-04-03T07:45:30.436Z,12.00
2023-04-03T07:50:30.350Z,12.49
2023-04-03T07:55:30.483Z,13.19
2023-04-03T08:00:30.196Z,13.47
2023-04-03T08:05:30.868Z,13.85
2023-04-03T08:10:30.065Z,14.96
2023-04-03T08:15:29.999Z,15.75
2023-04-03T08:20:29.938Z,14.89
2023-04-03T08:25:29.903Z,14.54
2023-04-03T08:30:29.804Z,15.92
2023-04-03T08:35:29.813Z,15.83
2023-04-03T08:40:29.730Z,16.23
2023-04-03T08:45:29.632Z,15.22
2023-04-03T08:50:29.545Z,17.20
2023-04-03T08:55:29.496Z,16.94
2023-04-03T09:00:29.407Z,16.51
2023-04-03T09:05:29.368Z,14.11
2023-04-03T09:10:29.280Z,15.75
2023-04-03T09:15:38.498Z,17.06
2023-04-03T09:20:30.178Z,17.11
2023-04-03T09:25:30.043Z,17.26
2023-04-03T09:30:29.020Z,18.26
2023-04-03T09:35:36.341Z,18.58
2023-04-03T09:40:29.869Z,19.02
2023-04-03T09:45:28.818Z,17.06
2023-04-03T09:50:28.758Z,13.05
2023-04-03T09:55:28.744Z,13.11
2023-04-03T10:00:28.593Z,12.86
2023-04-03T10:05:28.570Z,15.29
2023-04-03T10:10:28.565Z,17.63
2023-04-03T10:15:28.480Z,16.93
2023-04-03T10:20:28.447Z,17.31
2023-04-03T10:25:28.310Z,17.31
2023-04-03T10:30:28.191Z,17.39
2023-04-03T10:35:28.157Z,17.86
2023-04-03T10:40:28.080Z,18.77
2023-04-03T10:45:28.011Z,19.48
2023-04-03T10:50:27.975Z,18.10
2023-04-03T10:55:27.901Z,18.80
2023-04-03T11:00:27.815Z,18.65
2023-04-03T11:05:27.793Z,17.23
2023-04-03T11:10:27.777Z,18.00
2023-04-03T11:15:27.617Z,18.25
2023-04-03T11:20:27.588Z,17.08
2023-04-03T11:25:27.516Z,16.39
2023-04-03T11:30:28.255Z,16.08
2023-04-03T11:35:27.364Z,17.67
2023-04-03T11:40:27.281Z,17.57
2023-04-03T11:45:27.230Z,16.69
2023-04-03T11:50:27.152Z,16.01
2023-04-03T11:55:27.123Z,15.22
2023-04-03T12:00:27.035Z,15.55
2023-04-03T12:05:26.981Z,16.86
2023-04-03T12:10:32.072Z,16.81
2023-04-03T12:15:27.838Z,17.78
2023-04-03T12:20:26.776Z,14.41
2023-04-03T12:25:26.682Z,14.65
2023-04-03T12:30:26.615Z,14.84
2023-04-03T12:35:26.592Z,15.46
2023-04-03T12:40:26.509Z,15.73
2023-04-03T12:45:26.469Z,15.03
2023-04-03T12:50:26.378Z,13.23
2023-04-03T12:55:26.302Z,13.67
2023-04-03T13:00:26.237Z,14.26
2023-04-03T13:05:26.161Z,14.50
2023-04-03T13:10:26.104Z,14.17
2023-04-03T13:15:26.061Z,13.60
2023-04-03T13:20:26.013Z,13.04
2023-04-03T13:25:25.956Z,13.05
2023-04-03T13:30:25.990Z,13.15
2023-04-03T13:35:25.760Z,12.94
2023-04-03T13:40:29.997Z,11.55
2023-04-03T13:45:26.676Z,11.07
2023-04-03T13:50:25.556Z,11.47
2023-04-03T13:55:26.614Z,11.26
2023-04-03T14:00:25.467Z,11.51
2023-04-03T14:05:25.393Z,11.15
2023-04-03T14:10:25.338Z,11.22
2023-04-03T14:15:25.250Z,11.36
2023-04-03T14:20:25.158Z,11.37
2023-04-03T14:25:25.166Z,11.45
2023-04-03T14:30:25.007Z,11.51
2023-04-03T14:35:24.967Z,11.66
2023-04-03T14:40:24.870Z,11.23
2023-04-03T14:45:24.863Z,11.30
2023-04-03T14:50:24.735Z,11.54
2023-04-03T14:55:24.698Z,11.73
2023-04-03T15:00:24.600Z,11.26
2023-04-03T15:05:24.578Z,11.07
2023-04-03T15:10:24.502Z,10.89
2023-04-03T15:15:24.451Z,11.04
2023-04-03T15:20:24.344Z,11.07
2023-04-03T15:25:24.301Z,10.92
2023-04-03T15:30:24.353Z,10.74
2023-04-03T15:35:24.227Z,10.68
2023-04-03T15:40:24.268Z,10.42
2023-04-03T15:45:24.033Z,10.30
2023-04-03T15:50:23.966Z,10.33
2023-04-03T15:55:23.913Z,10.04
2023-04-03T16:00:23.850Z,10.02
2023-04-03T16:05:23.760Z,10.12
2023-04-03T16:10:23.697Z,10.09
2023-04-03T16:15:23.647Z,9.91
2023-04-03T16:20:23.599Z,9.68
2023-04-03T16:25:23.498Z,9.46
2023-04-03T16:30:23.445Z,9.46
2023-04-03T16:35:23.379Z,9.54
2023-04-03T16:40:23.314Z,9.46
2023-04-03T16:45:23.271Z,9.19
2023-04-03T16:50:23.224Z,9.06
2023-04-03T16:55:23.128Z,8.88
2023-04-03T17:00:23.037Z,8.94
2023-04-03T17:05:22.992Z,8.73
2023-04-03T17:10:22.915Z,8.51
2023-04-03T17:15:22.835Z,8.34
2023-04-03T17:20:22.794Z,8.28
2023-04-03T17:25:22.701Z,8.12
2023-04-03T17:30:22.651Z,8.08
2023-04-03T17:35:22.586Z,8.01
2023-04-03T17:40:22.544Z,7.87
2023-04-03T17:45:22.445Z,7.79
2023-04-03T17:50:22.409Z,7.60
2023-04-03T17:55:23.110Z,7.48
2023-04-03T18:00:22.384Z,7.43
2023-04-03T18:05:22.173Z,7.31
2023-04-03T18:10:22.135Z,7.15
2023-04-03T18:15:22.048Z,7.03
2023-04-03T18:20:21.994Z,6.93
2023-04-03T18:25:21.920Z,6.82
2023-04-03T18:30:21.880Z,6.74
2023-04-03T18:35:21.802Z,6.64
2023-04-03T18:40:21.746Z,6.56
2023-04-03T18:45:21.630Z,6.42
2023-04-03T18:50:21.624Z,6.36
2023-04-03T18:55:21.550Z,6.27
2023-04-03T19:00:21.476Z,6.17
2023-04-03T19:05:21.412Z,6.11
2023-04-03T19:10:21.352Z,6.02
2023-04-03T19:15:21.238Z,5.97
2023-04-03T19:20:21.198Z,5.87
2023-04-03T19:25:21.124Z,5.80
2023-04-03T19:30:21.428Z,5.71
2023-04-03T19:35:20.989Z,5.61
2023-04-03T19:40:20.948Z,5.48
2023-04-03T19:45:20.871Z,5.41
2023-04-03T19:50:20.841Z,5.33
2023-04-03T19:55:20.745Z,5.20
2023-04-03T20:00:20.701Z,5.18
2023-04-03T20:05:20.625Z,5.07
2023-04-03T20:10:20.749Z,4.74
2023-04-03T20:15:20.485Z,4.52
2023-04-03T20:20:20.439Z,4.35
2023-04-03T20:25:43.888Z,4.22
2023-04-03T20:30:21.283Z,4.06
2023-04-03T20:35:20.231Z,3.81
2023-04-03T20:40:20.190Z,3.65
2023-04-03T20:45:20.083Z,3.55
2023-04-03T20:50:20.138Z,3.31
2023-04-03T20:55:19.963Z,3.19
2023-04-03T21:00:19.972Z,3.16
2023-04-03T21:05:19.872Z,3.11
2023-04-03T21:10:19.765Z,3.03
2023-04-03T21:15:19.692Z,3.08
2023-04-03T21:20:19.628Z,2.95
2023-04-03T21:25:19.564Z,2.93
2023-04-03T21:30:19.521Z,2.90
2023-04-03T21:35:19.471Z,2.87
2023-04-03T21:40:19.398Z,2.80
2023-04-03T21:45:19.301Z,2.64
2023-04-03T21:50:19.254Z,2.54
2023-04-03T21:55:19.179Z,2.47
2023-04-03T22:00:19.274Z,2.36
2023-04-03T22:05:19.047Z,2.26
2023-04-03T22:10:18.995Z,2.22
2023-04-03T22:15:18.912Z,2.08
2023-04-03T22:20:18.895Z,1.94
2023-04-03T22:25:18.908Z,1.88
2023-04-03T22:30:18.744Z,1.95
2023-04-03T22:35:18.656Z,2.02
2023-04-03T22:40:19.348Z,1.94
2023-04-03T22:45:18.522Z,1.88
2023-04-03T22:50:18.488Z,1.81
2023-04-03T22:55:19.682Z,1.77
2023-04-03T23:00:18.364Z,1.70
2023-04-03T23:05:18.292Z,1.59
2023-04-03T23:10:18.286Z,1.63
2023-04-03T23:15:19.004Z,1.56
2023-04-03T23:20:18.092Z,1.59
2023-04-03T23:25:18.029Z,1.62
2023-04-03T23:30:17.957Z,1.78
2023-04-03T23:35:17.886Z,1.88
2023-04-03T23:40:17.856Z,1.78
2023-04-03T23:45:17.768Z,1.56
2023-04-03T23:50:17.739Z,1.37
2023-04-03T23:55:19.472Z,1.20
